sensor_id;sensor_type;location;lat;lon;timestamp;pressure;altitude;pressure_sealevel;temperature
19568;BMP280;9930;49.240;8.548;2023-02-19T00:01:47;101067.16;;;15.01
19568;BMP280;9930;49.240;8.548;2023-02-19T00:04:20;101058.69;;;15.04
19568;BMP280;9930;49.240;8.548;2023-02-19T00:06:52;101070.69;;;15.05
19568;BMP280;9930;49.240;8.548;2023-02-19T00:09:22;101066.34;;;15.02
19568;BMP280;9930;49.240;8.548;2023-02-19T00:11:48;101069.00;;;15.05
19568;BMP280;9930;49.240;8.548;2023-02-19T00:14:20;101058.63;;;15.02
19568;BMP280;9930;49.240;8.548;2023-02-19T00:16:46;101063.00;;;15.05
19568;BMP280;9930;49.240;8.548;2023-02-19T00:19:15;101049.28;;;15.04
19568;BMP280;9930;49.240;8.548;2023-02-19T00:21:41;101056.09;;;15.04
19568;BMP280;9930;49.240;8.548;2023-02-19T00:24:11;101043.13;;;14.99
19568;BMP280;9930;49.240;8.548;2023-02-19T00:26:43;101045.00;;;15.05
19568;BMP280;9930;49.240;8.548;2023-02-19T00:29:18;101046.72;;;15.04
19568;BMP280;9930;49.240;8.548;2023-02-19T00:31:49;101047.31;;;14.96
19568;BMP280;9930;49.240;8.548;2023-02-19T00:34:17;101054.31;;;15.01
19568;BMP280;9930;49.240;8.548;2023-02-19T00:36:45;101055.97;;;14.99
19568;BMP280;9930;49.240;8.548;2023-02-19T00:39:15;101045.56;;;14.95
19568;BMP280;9930;49.240;8.548;2023-02-19T00:41:48;101063.50;;;14.93
19568;BMP280;9930;49.240;8.548;2023-02-19T00:44:16;101064.50;;;14.98
19568;BMP280;9930;49.240;8.548;2023-02-19T00:46:45;101058.53;;;14.99
19568;BMP280;9930;49.240;8.548;2023-02-19T00:49:22;101061.84;;;14.95
19568;BMP280;9930;49.240;8.548;2023-02-19T00:51:52;101075.56;;;14.96
19568;BMP280;9930;49.240;8.548;2023-02-19T00:54:19;101071.94;;;14.89
19568;BMP280;9930;49.240;8.548;2023-02-19T00:56:45;101080.66;;;14.94
19568;BMP280;9930;49.240;8.548;2023-02-19T00:59:11;101068.59;;;14.92
19568;BMP280;9930;49.240;8.548;2023-02-19T01:01:37;101048.97;;;14.94
19568;BMP280;9930;49.240;8.548;2023-02-19T01:04:04;101030.59;;;14.81
19568;BMP280;9930;49.240;8.548;2023-02-19T01:06:30;101026.47;;;14.86
19568;BMP280;9930;49.240;8.548;2023-02-19T01:08:57;101043.81;;;14.94
19568;BMP280;9930;49.240;8.548;2023-02-19T01:11:25;101060.09;;;14.94
19568;BMP280;9930;49.240;8.548;2023-02-19T01:13:56;101064.31;;;14.92
19568;BMP280;9930;49.240;8.548;2023-02-19T01:16:24;101061.75;;;14.92
19568;BMP280;9930;49.240;8.548;2023-02-19T01:18:53;101064.31;;;14.92
19568;BMP280;9930;49.240;8.548;2023-02-19T01:21:26;101066.03;;;14.92
19568;BMP280;9930;49.240;8.548;2023-02-19T01:23:53;101069.41;;;14.90
19568;BMP280;9930;49.240;8.548;2023-02-19T01:26:25;101065.88;;;14.87
19568;BMP280;9930;49.240;8.548;2023-02-19T01:28:52;101062.59;;;14.91
19568;BMP280;9930;49.240;8.548;2023-02-19T01:31:22;101054.88;;;14.91
19568;BMP280;9930;49.240;8.548;2023-02-19T01:33:58;101062.59;;;14.91
19568;BMP280;9930;49.240;8.548;2023-02-19T01:36:24;101093.44;;;14.93
19568;BMP280;9930;49.240;8.548;2023-02-19T01:38:53;101077.84;;;14.86
19568;BMP280;9930;49.240;8.548;2023-02-19T01:41:24;101079.72;;;14.92
19568;BMP280;9930;49.240;8.548;2023-02-19T01:46:44;101056.56;;;14.90
19568;BMP280;9930;49.240;8.548;2023-02-19T01:49:20;101035.16;;;14.90
19568;BMP280;9930;49.240;8.548;2023-02-19T01:51:54;101018.69;;;14.83
19568;BMP280;9930;49.240;8.548;2023-02-19T01:54:27;101025.69;;;14.89
19568;BMP280;9930;49.240;8.548;2023-02-19T01:56:57;101028.03;;;14.81
19568;BMP280;9930;49.240;8.548;2023-02-19T01:59:26;101035.66;;;14.78
19568;BMP280;9930;49.240;8.548;2023-02-19T02:01:54;101039.03;;;14.77
19568;BMP280;9930;49.240;8.548;2023-02-19T02:04:23;101043.44;;;14.81
19568;BMP280;9930;49.240;8.548;2023-02-19T02:06:53;101049.47;;;14.82
19568;BMP280;9930;49.240;8.548;2023-02-19T02:09:24;101049.28;;;14.76
19568;BMP280;9930;49.240;8.548;2023-02-19T02:12:09;101045.88;;;14.77
19568;BMP280;9930;49.240;8.548;2023-02-19T02:14:44;101045.84;;;14.75
19568;BMP280;9930;49.240;8.548;2023-02-19T02:17:24;101042.41;;;14.75
19568;BMP280;9930;49.240;8.548;2023-02-19T02:27:25;101026.56;;;14.61
19568;BMP280;9930;49.240;8.548;2023-02-19T02:30:04;101026.59;;;14.63
19568;BMP280;9930;49.240;8.548;2023-02-19T02:35:48;101044.47;;;14.60
19568;BMP280;9930;49.240;8.548;2023-02-19T02:38:24;101031.66;;;14.60
19568;BMP280;9930;49.240;8.548;2023-02-19T02:40:52;101028.22;;;14.59
19568;BMP280;9930;49.240;8.548;2023-02-19T02:43:18;101008.31;;;14.52
19568;BMP280;9930;49.240;8.548;2023-02-19T02:45:47;101016.94;;;14.54
19568;BMP280;9930;49.240;8.548;2023-02-19T02:51:21;101027.28;;;14.57
19568;BMP280;9930;49.240;8.548;2023-02-19T02:53:59;101014.22;;;14.49
19568;BMP280;9930;49.240;8.548;2023-02-19T02:56:51;101003.03;;;14.47
19568;BMP280;9930;49.240;8.548;2023-02-19T02:59:22;101008.22;;;14.49
19568;BMP280;9930;49.240;8.548;2023-02-19T03:02:05;101005.59;;;14.47
19568;BMP280;9930;49.240;8.548;2023-02-19T03:05:05;101006.38;;;14.45
19568;BMP280;9930;49.240;8.548;2023-02-19T03:08:06;101026.84;;;14.43
19568;BMP280;9930;49.240;8.548;2023-02-19T03:13:21;101011.19;;;14.36
19568;BMP280;9930;49.240;8.548;2023-02-19T03:16:21;101023.91;;;14.33
19568;BMP280;9930;49.240;8.548;2023-02-19T03:19:13;101010.88;;;14.26
19568;BMP280;9930;49.240;8.548;2023-02-19T03:21:50;101017.88;;;14.31
19568;BMP280;9930;49.240;8.548;2023-02-19T03:24:21;101010.06;;;14.27
19568;BMP280;9930;49.240;8.548;2023-02-19T03:27:09;101015.19;;;14.27
19568;BMP280;9930;49.240;8.548;2023-02-19T03:29:40;101027.16;;;14.27
19568;BMP280;9930;49.240;8.548;2023-02-19T03:32:31;101034.94;;;14.30
19568;BMP280;9930;49.240;8.548;2023-02-19T03:35:12;101047.00;;;14.33
19568;BMP280;9930;49.240;8.548;2023-02-19T03:38:02;101046.09;;;14.31
19568;BMP280;9930;49.240;8.548;2023-02-19T03:40:33;101045.16;;;14.29
19568;BMP280;9930;49.240;8.548;2023-02-19T03:43:33;101046.03;;;14.29
19568;BMP280;9930;49.240;8.548;2023-02-19T03:46:20;101031.22;;;14.20
19568;BMP280;9930;49.240;8.548;2023-02-19T03:49:00;101032.91;;;14.20
19568;BMP280;9930;49.240;8.548;2023-02-19T03:51:40;101056.16;;;14.24
19568;BMP280;9930;49.240;8.548;2023-02-19T03:54:37;101050.91;;;14.21
19568;BMP280;9930;49.240;8.548;2023-02-19T03:57:19;101042.16;;;14.15
19568;BMP280;9930;49.240;8.548;2023-02-19T04:05:21;101030.88;;;14.10
19568;BMP280;9930;49.240;8.548;2023-02-19T04:07:53;101044.56;;;14.10
19568;BMP280;9930;49.240;8.548;2023-02-19T04:10:21;101040.97;;;14.05
19568;BMP280;9930;49.240;8.548;2023-02-19T04:13:00;101039.22;;;14.04
19568;BMP280;9930;49.240;8.548;2023-02-19T04:15:32;101040.00;;;14.02
19568;BMP280;9930;49.240;8.548;2023-02-19T04:18:10;101041.78;;;14.04
19568;BMP280;9930;49.240;8.548;2023-02-19T04:20:42;101060.66;;;14.06
19568;BMP280;9930;49.240;8.548;2023-02-19T04:23:11;101058.16;;;14.08
19568;BMP280;9930;49.240;8.548;2023-02-19T04:25:44;101036.75;;;14.07
19568;BMP280;9930;49.240;8.548;2023-02-19T04:28:13;101045.22;;;14.05
19568;BMP280;9930;49.240;8.548;2023-02-19T04:30:41;101052.94;;;14.05
19568;BMP280;9930;49.240;8.548;2023-02-19T04:33:09;101037.44;;;14.02
19568;BMP280;9930;49.240;8.548;2023-02-19T04:35:34;101042.50;;;14.00
19568;BMP280;9930;49.240;8.548;2023-02-19T04:38:00;101052.72;;;13.99
19568;BMP280;9930;49.240;8.548;2023-02-19T04:40:31;101062.31;;;14.04
19568;BMP280;9930;49.240;8.548;2023-02-19T04:42:59;101059.53;;;13.98
19568;BMP280;9930;49.240;8.548;2023-02-19T04:45:27;101057.03;;;14.00
19568;BMP280;9930;49.240;8.548;2023-02-19T04:47:53;101051.75;;;13.95
19568;BMP280;9930;49.240;8.548;2023-02-19T04:50:21;101056.16;;;13.99
19568;BMP280;9930;49.240;8.548;2023-02-19T04:52:47;101057.75;;;13.96
19568;BMP280;9930;49.240;8.548;2023-02-19T04:55:16;101064.63;;;13.97
19568;BMP280;9930;49.240;8.548;2023-02-19T04:57:42;101064.56;;;13.95
19568;BMP280;9930;49.240;8.548;2023-02-19T05:00:11;101061.13;;;13.94
19568;BMP280;9930;49.240;8.548;2023-02-19T05:02:37;101063.59;;;13.91
19568;BMP280;9930;49.240;8.548;2023-02-19T05:05:03;101041.28;;;13.89
19568;BMP280;9930;49.240;8.548;2023-02-19T05:07:32;101037.94;;;13.91
19568;BMP280;9930;49.240;8.548;2023-02-19T05:10:00;101037.03;;;13.89
19568;BMP280;9930;49.240;8.548;2023-02-19T05:12:26;101041.13;;;13.84
19568;BMP280;9930;49.240;8.548;2023-02-19T05:14:51;101028.13;;;13.80
19568;BMP280;9930;49.240;8.548;2023-02-19T05:17:17;101049.63;;;13.83
19568;BMP280;9930;49.240;8.548;2023-02-19T05:19:43;101050.50;;;13.84
19568;BMP280;9930;49.240;8.548;2023-02-19T05:22:09;101058.16;;;13.82
19568;BMP280;9930;49.240;8.548;2023-02-19T05:24:35;101057.22;;;13.80
19568;BMP280;9930;49.240;8.548;2023-02-19T05:27:05;101061.47;;;13.80
19568;BMP280;9930;49.240;8.548;2023-02-19T05:29:34;101054.59;;;13.79
19568;BMP280;9930;49.240;8.548;2023-02-19T05:32:00;101037.38;;;13.75
19568;BMP280;9930;49.240;8.548;2023-02-19T05:34:25;101043.53;;;13.80
19568;BMP280;9930;49.240;8.548;2023-02-19T05:36:56;101049.47;;;13.79
19568;BMP280;9930;49.240;8.548;2023-02-19T05:39:28;101038.13;;;13.72
19568;BMP280;9930;49.240;8.548;2023-02-19T05:42:01;101057.94;;;13.76
19568;BMP280;9930;49.240;8.548;2023-02-19T05:44:27;101048.28;;;13.69
19568;BMP280;9930;49.240;8.548;2023-02-19T05:46:55;101057.88;;;13.75
19568;BMP280;9930;49.240;8.548;2023-02-19T05:49:23;101052.53;;;13.69
19568;BMP280;9930;49.240;8.548;2023-02-19T05:51:51;101059.50;;;13.73
19568;BMP280;9930;49.240;8.548;2023-02-19T05:54:19;101049.88;;;13.66
19568;BMP280;9930;49.240;8.548;2023-02-19T05:56:45;101040.47;;;13.66
19568;BMP280;9930;49.240;8.548;2023-02-19T05:59:23;101064.63;;;13.73
19568;BMP280;9930;49.240;8.548;2023-02-19T06:01:52;101054.31;;;13.71
19568;BMP280;9930;49.240;8.548;2023-02-19T06:04:18;101058.44;;;13.66
19568;BMP280;9930;49.240;8.548;2023-02-19T06:06:45;101064.59;;;13.71
19568;BMP280;9930;49.240;8.548;2023-02-19T06:09:12;101072.22;;;13.70
19568;BMP280;9930;49.240;8.548;2023-02-19T06:11:41;101072.97;;;13.67
19568;BMP280;9930;49.240;8.548;2023-02-19T06:14:12;101085.16;;;13.73
19568;BMP280;9930;49.240;8.548;2023-02-19T06:16:39;101080.63;;;13.66
19568;BMP280;9930;49.240;8.548;2023-02-19T06:19:05;101083.19;;;13.66
19568;BMP280;9930;49.240;8.548;2023-02-19T06:21:33;101084.06;;;13.66
19568;BMP280;9930;49.240;8.548;2023-02-19T06:24:04;101084.88;;;13.65
19568;BMP280;9930;49.240;8.548;2023-02-19T06:26:30;101090.00;;;13.65
19568;BMP280;9930;49.240;8.548;2023-02-19T06:29:01;101085.69;;;13.64
19568;BMP280;9930;49.240;8.548;2023-02-19T06:31:27;101097.00;;;13.69
19568;BMP280;9930;49.240;8.548;2023-02-19T06:33:55;101108.13;;;13.70
19568;BMP280;9930;49.240;8.548;2023-02-19T06:36:23;101105.56;;;13.70
19568;BMP280;9930;49.240;8.548;2023-02-19T06:38:52;101108.97;;;13.70
19568;BMP280;9930;49.240;8.548;2023-02-19T06:41:18;101115.00;;;13.71
19568;BMP280;9930;49.240;8.548;2023-02-19T06:43:44;101127.81;;;13.71
19568;BMP280;9930;49.240;8.548;2023-02-19T06:46:13;101118.31;;;13.68
19568;BMP280;9930;49.240;8.548;2023-02-19T06:48:44;101121.69;;;13.67
19568;BMP280;9930;49.240;8.548;2023-02-19T06:51:18;101110.47;;;13.64
19568;BMP280;9930;49.240;8.548;2023-02-19T06:53:47;101114.00;;;13.67
19568;BMP280;9930;49.240;8.548;2023-02-19T06:56:27;101126.88;;;13.69
19568;BMP280;9930;49.240;8.548;2023-02-19T06:58:56;101115.53;;;13.62
19568;BMP280;9930;49.240;8.548;2023-02-19T07:01:24;101134.47;;;13.66
19568;BMP280;9930;49.240;8.548;2023-02-19T07:03:51;101125.94;;;13.67
19568;BMP280;9930;49.240;8.548;2023-02-19T07:06:21;101140.47;;;13.66
19568;BMP280;9930;49.240;8.548;2023-02-19T07:08:51;101133.75;;;13.70
19568;BMP280;9930;49.240;8.548;2023-02-19T07:11:17;101122.69;;;13.71
19568;BMP280;9930;49.240;8.548;2023-02-19T07:13:44;101123.50;;;13.70
19568;BMP280;9930;49.240;8.548;2023-02-19T07:16:11;101121.91;;;13.73
19568;BMP280;9930;49.240;8.548;2023-02-19T07:18:42;101121.97;;;13.75
19568;BMP280;9930;49.240;8.548;2023-02-19T07:21:12;101120.22;;;13.74
19568;BMP280;9930;49.240;8.548;2023-02-19T07:23:40;101120.22;;;13.74
19568;BMP280;9930;49.240;8.548;2023-02-19T07:26:17;101130.53;;;13.75
19568;BMP280;9930;49.240;8.548;2023-02-19T07:28:48;101114.88;;;13.68
19568;BMP280;9930;49.240;8.548;2023-02-19T07:31:17;101138.28;;;13.77
19568;BMP280;9930;49.240;8.548;2023-02-19T07:33:45;101134.03;;;13.77
19568;BMP280;9930;49.240;8.548;2023-02-19T07:36:12;101137.53;;;13.79
19568;BMP280;9930;49.240;8.548;2023-02-19T07:38:39;101131.41;;;13.76
19568;BMP280;9930;49.240;8.548;2023-02-19T07:41:07;101134.97;;;13.79
19568;BMP280;9930;49.240;8.548;2023-02-19T07:43:39;101137.75;;;13.85
19568;BMP280;9930;49.240;8.548;2023-02-19T07:46:11;101147.22;;;13.88
19568;BMP280;9930;49.240;8.548;2023-02-19T07:48:39;101155.84;;;13.90
19568;BMP280;9930;49.240;8.548;2023-02-19T07:51:14;101139.66;;;13.91
19568;BMP280;9930;49.240;8.548;2023-02-19T07:53:44;101147.50;;;13.96
19568;BMP280;9930;49.240;8.548;2023-02-19T07:56:11;101163.94;;;14.01
19568;BMP280;9930;49.240;8.548;2023-02-19T07:58:42;101170.75;;;14.00
19568;BMP280;9930;49.240;8.548;2023-02-19T08:03:37;101176.88;;;14.04
19568;BMP280;9930;49.240;8.548;2023-02-19T08:06:08;101182.09;;;14.07
19568;BMP280;9930;49.240;8.548;2023-02-19T08:08:37;101194.34;;;14.14
19568;BMP280;9930;49.240;8.548;2023-02-19T08:11:04;101186.59;;;14.12
19568;BMP280;9930;49.240;8.548;2023-02-19T08:13:51;101199.41;;;14.12
19568;BMP280;9930;49.240;8.548;2023-02-19T08:16:20;101201.44;;;14.21
19568;BMP280;9930;49.240;8.548;2023-02-19T08:18:47;101206.63;;;14.22
19568;BMP280;9930;49.240;8.548;2023-02-19T08:21:15;101210.16;;;14.26
19568;BMP280;9930;49.240;8.548;2023-02-19T08:23:43;101195.59;;;14.25
19568;BMP280;9930;49.240;8.548;2023-02-19T08:26:10;101196.56;;;14.29
19568;BMP280;9930;49.240;8.548;2023-02-19T08:28:36;101189.75;;;14.29
19568;BMP280;9930;49.240;8.548;2023-02-19T08:31:06;101188.91;;;14.30
19568;BMP280;9930;49.240;8.548;2023-02-19T08:33:31;101196.13;;;14.40
19568;BMP280;9930;49.240;8.548;2023-02-19T08:36:05;101189.84;;;14.32
19568;BMP280;9930;49.240;8.548;2023-02-19T08:38:35;101192.63;;;14.38
19568;BMP280;9930;49.240;8.548;2023-02-19T08:41:10;101211.00;;;14.49
19568;BMP280;9930;49.240;8.548;2023-02-19T08:43:39;101205.03;;;14.50
19568;BMP280;9930;49.240;8.548;2023-02-19T08:46:06;101207.06;;;14.58
19568;BMP280;9930;49.240;8.548;2023-02-19T08:48:35;101213.38;;;14.68
19568;BMP280;9930;49.240;8.548;2023-02-19T08:51:05;101216.28;;;14.79
19568;BMP280;9930;49.240;8.548;2023-02-19T08:53:34;101213.25;;;14.90
19568;BMP280;9930;49.240;8.548;2023-02-19T08:56:11;101220.44;;;15.01
19568;BMP280;9930;49.240;8.548;2023-02-19T08:58:40;101193.88;;;15.00
19568;BMP280;9930;49.240;8.548;2023-02-19T09:01:14;101213.38;;;15.20
19568;BMP280;9930;49.240;8.548;2023-02-19T09:03:45;101216.97;;;15.26
19568;BMP280;9930;49.240;8.548;2023-02-19T09:06:17;101220.00;;;15.41
19568;BMP280;9930;49.240;8.548;2023-02-19T09:08:45;101225.38;;;15.48
19568;BMP280;9930;49.240;8.548;2023-02-19T09:11:14;101239.28;;;15.55
19568;BMP280;9930;49.240;8.548;2023-02-19T09:13:45;101232.59;;;15.59
19568;BMP280;9930;49.240;8.548;2023-02-19T09:16:11;101246.47;;;15.65
19568;BMP280;9930;49.240;8.548;2023-02-19T09:18:37;101266.41;;;15.72
19568;BMP280;9930;49.240;8.548;2023-02-19T09:21:07;101256.13;;;15.72
19568;BMP280;9930;49.240;8.548;2023-02-19T09:23:36;101251.19;;;15.80
19568;BMP280;9930;49.240;8.548;2023-02-19T09:26:06;101268.66;;;15.90
19568;BMP280;9930;49.240;8.548;2023-02-19T09:28:37;101259.38;;;15.95
19568;BMP280;9930;49.240;8.548;2023-02-19T09:31:12;101263.03;;;16.03
19568;BMP280;9930;49.240;8.548;2023-02-19T09:33:46;101272.59;;;16.07
19568;BMP280;9930;49.240;8.548;2023-02-19T09:36:15;101272.91;;;16.18
19568;BMP280;9930;49.240;8.548;2023-02-19T09:38:41;101258.41;;;16.22
19568;BMP280;9930;49.240;8.548;2023-02-19T09:41:33;101249.38;;;16.36
19568;BMP280;9930;49.240;8.548;2023-02-19T09:44:08;101237.41;;;16.38
19568;BMP280;9930;49.240;8.548;2023-02-19T09:46:51;101269.47;;;16.49
19568;BMP280;9930;49.240;8.548;2023-02-19T09:49:41;101268.69;;;16.51
19568;BMP280;9930;49.240;8.548;2023-02-19T09:55:16;101295.47;;;16.58
19568;BMP280;9930;49.240;8.548;2023-02-19T09:57:46;101297.31;;;16.62
19568;BMP280;9930;49.240;8.548;2023-02-19T10:00:28;101304.28;;;16.65
19568;BMP280;9930;49.240;8.548;2023-02-19T10:03:11;101312.25;;;16.74
19568;BMP280;9930;49.240;8.548;2023-02-19T10:05:40;101305.28;;;16.70
19568;BMP280;9930;49.240;8.548;2023-02-19T10:08:16;101308.88;;;16.76
19568;BMP280;9930;49.240;8.548;2023-02-19T10:10:45;101310.72;;;16.80
19568;BMP280;9930;49.240;8.548;2023-02-19T10:13:23;101307.53;;;16.91
19568;BMP280;9930;49.240;8.548;2023-02-19T10:15:56;101302.28;;;16.86
19568;BMP280;9930;49.240;8.548;2023-02-19T10:18:36;101308.50;;;16.94
19568;BMP280;9930;49.240;8.548;2023-02-19T10:21:04;101305.03;;;16.94
19568;BMP280;9930;49.240;8.548;2023-02-19T10:23:33;101302.50;;;16.95
19568;BMP280;9930;49.240;8.548;2023-02-19T10:25:59;101296.38;;;16.90
19568;BMP280;9930;49.240;8.548;2023-02-19T10:28:32;101302.47;;;16.94
19568;BMP280;9930;49.240;8.548;2023-02-19T10:31:02;101309.25;;;16.90
19568;BMP280;9930;49.240;8.548;2023-02-19T10:33:30;101296.19;;;16.84
19568;BMP280;9930;49.240;8.548;2023-02-19T10:36:04;101307.34;;;16.83
19568;BMP280;9930;49.240;8.548;2023-02-19T10:38:36;101321.13;;;16.85
19568;BMP280;9930;49.240;8.548;2023-02-19T10:41:15;101315.88;;;16.80
19568;BMP280;9930;49.240;8.548;2023-02-19T10:43:54;101315.69;;;16.74
19568;BMP280;9930;49.240;8.548;2023-02-19T10:46:27;101303.59;;;16.72
19568;BMP280;9930;49.240;8.548;2023-02-19T10:49:14;101310.66;;;16.79
19568;BMP280;9930;49.240;8.548;2023-02-19T10:51:46;101315.19;;;16.88
19568;BMP280;9930;49.240;8.548;2023-02-19T10:54:18;101314.44;;;16.92
19568;BMP280;9930;49.240;8.548;2023-02-19T10:56:46;101313.50;;;16.88
19568;BMP280;9930;49.240;8.548;2023-02-19T10:59:27;101327.53;;;16.99
19568;BMP280;9930;49.240;8.548;2023-02-19T11:02:01;101323.16;;;16.97
19568;BMP280;9930;49.240;8.548;2023-02-19T11:04:33;101332.81;;;17.04
19568;BMP280;9930;49.240;8.548;2023-02-19T11:07:13;101331.13;;;17.06
19568;BMP280;9930;49.240;8.548;2023-02-19T11:09:46;101344.25;;;17.15
19568;BMP280;9930;49.240;8.548;2023-02-19T11:12:25;101342.56;;;17.15
19568;BMP280;9930;49.240;8.548;2023-02-19T11:14:51;101333.84;;;17.10
19568;BMP280;9930;49.240;8.548;2023-02-19T11:17:26;101345.22;;;17.19
19568;BMP280;9930;49.240;8.548;2023-02-19T11:20:04;101343.34;;;17.13
19568;BMP280;9930;49.240;8.548;2023-02-19T11:22:39;101360.53;;;17.12
19568;BMP280;9930;49.240;8.548;2023-02-19T11:30:47;101372.50;;;17.10
19568;BMP280;9930;49.240;8.548;2023-02-19T11:35:50;101383.00;;;17.18
19568;BMP280;9930;49.240;8.548;2023-02-19T11:38:19;101392.53;;;17.21
19568;BMP280;9930;49.240;8.548;2023-02-19T11:50:09;101381.28;;;17.17
19568;BMP280;9930;49.240;8.548;2023-02-19T11:59:16;101348.81;;;17.25
19568;BMP280;9930;49.240;8.548;2023-02-19T12:14:43;101366.16;;;17.31
19568;BMP280;9930;49.240;8.548;2023-02-19T12:17:46;101360.16;;;17.32
19568;BMP280;9930;49.240;8.548;2023-02-19T12:23:35;101353.72;;;17.49
19568;BMP280;9930;49.240;8.548;2023-02-19T12:35:06;101350.28;;;17.85
19568;BMP280;9930;49.240;8.548;2023-02-19T12:40:37;101358.19;;;17.91
19568;BMP280;9930;49.240;8.548;2023-02-19T12:43:15;101378.03;;;17.93
19568;BMP280;9930;49.240;8.548;2023-02-19T12:46:06;101370.31;;;17.95
19568;BMP280;9930;49.240;8.548;2023-02-19T12:48:57;101350.41;;;17.89
19568;BMP280;9930;49.240;8.548;2023-02-19T12:56:45;101348.50;;;17.82
19568;BMP280;9930;49.240;8.548;2023-02-19T12:59:37;101349.31;;;17.79
19568;BMP280;9930;49.240;8.548;2023-02-19T13:05:39;101343.97;;;17.72
19568;BMP280;9930;49.240;8.548;2023-02-19T13:08:40;101327.66;;;17.73
19568;BMP280;9930;49.240;8.548;2023-02-19T13:16:56;101337.47;;;17.88
19568;BMP280;9930;49.240;8.548;2023-02-19T13:19:24;101345.31;;;17.92
19568;BMP280;9930;49.240;8.548;2023-02-19T13:22:03;101346.28;;;17.97
19568;BMP280;9930;49.240;8.548;2023-02-19T13:24:50;101336.06;;;18.02
19568;BMP280;9930;49.240;8.548;2023-02-19T13:27:32;101318.19;;;18.11
19568;BMP280;9930;49.240;8.548;2023-02-19T13:33:32;101324.38;;;18.19
19568;BMP280;9930;49.240;8.548;2023-02-19T13:38:47;101319.19;;;18.18
19568;BMP280;9930;49.240;8.548;2023-02-19T13:44:05;101313.16;;;18.17
19568;BMP280;9930;49.240;8.548;2023-02-19T13:46:45;101322.66;;;18.20
19568;BMP280;9930;49.240;8.548;2023-02-19T14:03:44;101305.53;;;17.84
19568;BMP280;9930;49.240;8.548;2023-02-19T14:06:11;101315.91;;;17.86
19568;BMP280;9930;49.240;8.548;2023-02-19T14:08:58;101300.38;;;17.84
19568;BMP280;9930;49.240;8.548;2023-02-19T14:17:42;101322.50;;;17.73
19568;BMP280;9930;49.240;8.548;2023-02-19T14:31:15;101336.81;;;17.62
19568;BMP280;9930;49.240;8.548;2023-02-19T14:33:49;101342.75;;;17.58
19568;BMP280;9930;49.240;8.548;2023-02-19T14:39:23;101358.94;;;17.52
19568;BMP280;9930;49.240;8.548;2023-02-19T14:42:17;101349.28;;;17.43
19568;BMP280;9930;49.240;8.548;2023-02-19T14:44:47;101366.53;;;17.46
19568;BMP280;9930;49.240;8.548;2023-02-19T14:47:18;101372.44;;;17.42
19568;BMP280;9930;49.240;8.548;2023-02-19T14:52:33;101370.56;;;17.35
19568;BMP280;9930;49.240;8.548;2023-02-19T14:55:31;101372.19;;;17.31
19568;BMP280;9930;49.240;8.548;2023-02-19T14:58:04;101366.03;;;17.26
19568;BMP280;9930;49.240;8.548;2023-02-19T15:00:38;101362.47;;;17.21
19568;BMP280;9930;49.240;8.548;2023-02-19T15:03:24;101371.91;;;17.21
19568;BMP280;9930;49.240;8.548;2023-02-19T15:05:57;101383.94;;;17.20
19568;BMP280;9930;49.240;8.548;2023-02-19T15:08:38;101386.47;;;17.19
19568;BMP280;9930;49.240;8.548;2023-02-19T15:11:17;101383.69;;;17.11
19568;BMP280;9930;49.240;8.548;2023-02-19T15:13:52;101380.13;;;17.06
19568;BMP280;9930;49.240;8.548;2023-02-19T15:16:22;101387.19;;;17.13
19568;BMP280;9930;49.240;8.548;2023-02-19T15:18:49;101393.13;;;17.10
19568;BMP280;9930;49.240;8.548;2023-02-19T15:21:28;101386.19;;;17.08
19568;BMP280;9930;49.240;8.548;2023-02-19T15:24:01;101387.69;;;17.00
19568;BMP280;9930;49.240;8.548;2023-02-19T15:26:52;101386.72;;;16.96
19568;BMP280;9930;49.240;8.548;2023-02-19T15:29:23;101384.09;;;16.95
19568;BMP280;9930;49.240;8.548;2023-02-19T15:34:30;101378.88;;;16.92
19568;BMP280;9930;49.240;8.548;2023-02-19T15:37:10;101390.94;;;16.93
19568;BMP280;9930;49.240;8.548;2023-02-19T15:39:45;101390.06;;;16.92
19568;BMP280;9930;49.240;8.548;2023-02-19T15:42:22;101396.94;;;16.93
19568;BMP280;9930;49.240;8.548;2023-02-19T15:44:59;101403.78;;;16.91
19568;BMP280;9930;49.240;8.548;2023-02-19T15:47:47;101402.81;;;16.88
19568;BMP280;9930;49.240;8.548;2023-02-19T15:50:50;101409.59;;;16.84
19568;BMP280;9930;49.240;8.548;2023-02-19T15:53:23;101398.16;;;16.74
19568;BMP280;9930;49.240;8.548;2023-02-19T15:56:08;101402.50;;;16.77
19568;BMP280;9930;49.240;8.548;2023-02-19T15:59:05;101408.53;;;16.77
19568;BMP280;9930;49.240;8.548;2023-02-19T16:01:39;101398.97;;;16.73
19568;BMP280;9930;49.240;8.548;2023-02-19T16:04:13;101414.47;;;16.75
19568;BMP280;9930;49.240;8.548;2023-02-19T16:06:59;101409.09;;;16.67
19568;BMP280;9930;49.240;8.548;2023-02-19T16:09:33;101407.31;;;16.65
19568;BMP280;9930;49.240;8.548;2023-02-19T16:12:03;101420.28;;;16.68
19568;BMP280;9930;49.240;8.548;2023-02-19T16:14:43;101412.25;;;16.59
19568;BMP280;9930;49.240;8.548;2023-02-19T16:22:22;101416.44;;;16.55
19568;BMP280;9930;49.240;8.548;2023-02-19T16:24:53;101414.59;;;16.51
19568;BMP280;9930;49.240;8.548;2023-02-19T16:27:35;101411.81;;;16.43
19568;BMP280;9930;49.240;8.548;2023-02-19T16:32:43;101397.78;;;16.34
19568;BMP280;9930;49.240;8.548;2023-02-19T16:35:37;101407.31;;;16.36
19568;BMP280;9930;49.240;8.548;2023-02-19T16:38:14;101410.72;;;16.35
19568;BMP280;9930;49.240;8.548;2023-02-19T16:45:46;101400.09;;;16.25
19568;BMP280;9930;49.240;8.548;2023-02-19T16:48:13;101408.78;;;16.28
19568;BMP280;9930;49.240;8.548;2023-02-19T16:50:40;101412.22;;;16.29
19568;BMP280;9930;49.240;8.548;2023-02-19T16:53:16;101401.75;;;16.23
19568;BMP280;9930;49.240;8.548;2023-02-19T16:55:46;101414.72;;;16.26
19568;BMP280;9930;49.240;8.548;2023-02-19T16:58:12;101424.97;;;16.24
19568;BMP280;9930;49.240;8.548;2023-02-19T17:00:40;101424.84;;;16.21
19568;BMP280;9930;49.240;8.548;2023-02-19T17:03:13;101415.19;;;16.14
19568;BMP280;9930;49.240;8.548;2023-02-19T17:05:40;101420.31;;;16.12
19568;BMP280;9930;49.240;8.548;2023-02-19T17:10:57;101428.75;;;16.08
19568;BMP280;9930;49.240;8.548;2023-02-19T17:13:23;101422.63;;;16.05
19568;BMP280;9930;49.240;8.548;2023-02-19T17:15:49;101432.00;;;16.03
19568;BMP280;9930;49.240;8.548;2023-02-19T17:18:17;101443.31;;;16.08
19568;BMP280;9930;49.240;8.548;2023-02-19T17:21:11;101450.13;;;16.06
19568;BMP280;9930;49.240;8.548;2023-02-19T17:23:38;101450.91;;;16.03